sensor_id;sensor_type;location;lat;lon;timestamp;noise_LAeq;noise_LA_min;noise_LA_max;noise_LA01;noise_LA95
67322;Laerm;57666;51.436;5.978;2024-01-30T00:00:02;40.11;36.85;45.34;;
67322;Laerm;57666;51.436;5.978;2024-01-30T00:00:14;37.93;36.60;39.13;;
67322;Laerm;57666;51.436;5.978;2024-01-30T00:00:24;37.84;36.78;39.05;;
67322;Laerm;57666;51.436;5.978;2024-01-30T00:00:34;37.78;36.52;38.89;;
67322;Laerm;57666;51.436;5.978;2024-01-30T00:00:45;37.74;36.72;38.94;;
67322;Laerm;57666;51.436;5.978;2024-01-30T00:00:56;37.79;36.66;38.88;;
67322;Laerm;57666;51.436;5.978;2024-01-30T00:01:07;37.68;36.47;38.91;;
67322;Laerm;57666;51.436;5.978;2024-01-30T00:01:17;37.66;36.59;39.01;;
67322;Laerm;57666;51.436;5.978;2024-01-30T00:01:27;37.81;36.59;38.95;;
67322;Laerm;57666;51.436;5.978;2024-01-30T00:01:38;37.79;36.16;38.95;;
67322;Laerm;57666;51.436;5.978;2024-01-30T00:01:48;37.75;36.61;39.02;;
67322;Laerm;57666;51.436;5.978;2024-01-30T00:01:58;37.83;36.63;38.73;;
67322;Laerm;57666;51.436;5.978;2024-01-30T00:02:09;37.89;36.72;39.20;;
67322;Laerm;57666;51.436;5.978;2024-01-30T00:02:19;37.73;36.69;39.00;;
67322;Laerm;57666;51.436;5.978;2024-01-30T00:02:29;37.89;36.48;39.23;;
67322;Laerm;57666;51.436;5.978;2024-01-30T00:02:39;37.70;36.45;39.39;;
67322;Laerm;57666;51.436;5.978;2024-01-30T00:02:50;37.79;36.44;38.77;;
67322;Laerm;57666;51.436;5.978;2024-01-30T00:03:00;37.84;36.87;39.15;;
67322;Laerm;57666;51.436;5.978;2024-01-30T00:03:10;37.79;36.71;38.87;;
67322;Laerm;57666;51.436;5.978;2024-01-30T00:03:21;37.81;36.70;39.25;;
67322;Laerm;57666;51.436;5.978;2024-01-30T00:03:31;37.86;36.64;39.20;;
67322;Laerm;57666;51.436;5.978;2024-01-30T00:03:42;37.84;36.78;39.04;;
67322;Laerm;57666;51.436;5.978;2024-01-30T00:03:52;37.78;36.66;39.13;;
67322;Laerm;57666;51.436;5.978;2024-01-30T00:04:02;37.95;36.73;39.25;;
67322;Laerm;57666;51.436;5.978;2024-01-30T00:04:13;37.94;36.88;39.13;;
67322;Laerm;57666;51.436;5.978;2024-01-30T00:04:23;37.76;36.64;39.08;;
67322;Laerm;57666;51.436;5.978;2024-01-30T00:04:33;37.74;36.11;38.94;;
67322;Laerm;57666;51.436;5.978;2024-01-30T00:04:43;37.76;36.57;39.07;;
67322;Laerm;57666;51.436;5.978;2024-01-30T00:04:54;37.66;36.51;38.82;;
67322;Laerm;57666;51.436;5.978;2024-01-30T00:05:04;37.63;36.51;38.98;;
67322;Laerm;57666;51.436;5.978;2024-01-30T00:05:15;37.68;36.55;38.72;;
67322;Laerm;57666;51.436;5.978;2024-01-30T00:05:25;37.72;36.64;38.84;;
67322;Laerm;57666;51.436;5.978;2024-01-30T00:05:35;37.69;36.65;38.77;;
67322;Laerm;57666;51.436;5.978;2024-01-30T00:05:46;37.80;36.44;38.81;;
67322;Laerm;57666;51.436;5.978;2024-01-30T00:05:56;37.82;36.82;39.39;;
67322;Laerm;57666;51.436;5.978;2024-01-30T00:06:06;37.65;36.69;38.66;;
67322;Laerm;57666;51.436;5.978;2024-01-30T00:06:20;37.59;36.42;38.78;;
67322;Laerm;57666;51.436;5.978;2024-01-30T00:06:33;40.88;36.08;64.81;;
67322;Laerm;57666;51.436;5.978;2024-01-30T00:06:44;37.75;36.69;43.62;;
67322;Laerm;57666;51.436;5.978;2024-01-30T00:06:54;37.77;36.78;39.03;;
67322;Laerm;57666;51.436;5.978;2024-01-30T00:07:05;37.66;36.48;38.90;;
67322;Laerm;57666;51.436;5.978;2024-01-30T00:07:15;37.70;36.54;38.92;;
67322;Laerm;57666;51.436;5.978;2024-01-30T00:07:25;37.74;36.72;38.84;;
67322;Laerm;57666;51.436;5.978;2024-01-30T00:07:35;37.77;36.56;39.08;;
67322;Laerm;57666;51.436;5.978;2024-01-30T00:07:46;37.78;36.34;38.78;;
67322;Laerm;57666;51.436;5.978;2024-01-30T00:07:56;37.69;36.58;38.81;;
67322;Laerm;57666;51.436;5.978;2024-01-30T00:08:07;37.83;36.27;39.59;;
67322;Laerm;57666;51.436;5.978;2024-01-30T00:08:17;37.78;36.81;39.47;;
67322;Laerm;57666;51.436;5.978;2024-01-30T00:08:28;37.79;36.54;39.16;;
67322;Laerm;57666;51.436;5.978;2024-01-30T00:08:38;37.87;36.60;39.04;;
67322;Laerm;57666;51.436;5.978;2024-01-30T00:08:49;37.77;36.61;38.95;;
67322;Laerm;57666;51.436;5.978;2024-01-30T00:08:59;37.78;36.47;40.11;;
67322;Laerm;57666;51.436;5.978;2024-01-30T00:09:09;37.84;36.46;39.07;;
67322;Laerm;57666;51.436;5.978;2024-01-30T00:09:20;37.74;36.58;39.05;;
67322;Laerm;57666;51.436;5.978;2024-01-30T00:09:31;37.78;36.41;38.92;;
67322;Laerm;57666;51.436;5.978;2024-01-30T00:09:41;37.85;36.73;39.01;;
67322;Laerm;57666;51.436;5.978;2024-01-30T00:09:52;37.96;36.95;39.36;;
67322;Laerm;57666;51.436;5.978;2024-01-30T00:10:02;37.80;36.14;41.01;;
67322;Laerm;57666;51.436;5.978;2024-01-30T00:10:12;37.77;36.39;39.20;;
67322;Laerm;57666;51.436;5.978;2024-01-30T00:10:22;37.84;36.80;39.80;;
67322;Laerm;57666;51.436;5.978;2024-01-30T00:10:33;37.85;36.68;42.54;;
67322;Laerm;57666;51.436;5.978;2024-01-30T00:10:43;38.07;36.71;39.21;;
67322;Laerm;57666;51.436;5.978;2024-01-30T00:10:53;38.06;36.58;42.41;;
67322;Laerm;57666;51.436;5.978;2024-01-30T00:11:04;38.01;36.65;39.66;;
67322;Laerm;57666;51.436;5.978;2024-01-30T00:11:14;37.96;36.55;39.27;;
67322;Laerm;57666;51.436;5.978;2024-01-30T00:11:25;37.86;36.78;38.92;;
67322;Laerm;57666;51.436;5.978;2024-01-30T00:11:35;38.00;36.48;41.58;;
67322;Laerm;57666;51.436;5.978;2024-01-30T00:11:46;37.97;36.47;40.27;;
67322;Laerm;57666;51.436;5.978;2024-01-30T00:11:56;37.84;36.70;39.13;;
67322;Laerm;57666;51.436;5.978;2024-01-30T00:12:07;37.95;36.84;38.83;;
67322;Laerm;57666;51.436;5.978;2024-01-30T00:12:17;37.95;36.89;43.03;;
67322;Laerm;57666;51.436;5.978;2024-01-30T00:12:27;38.06;36.88;40.30;;
67322;Laerm;57666;51.436;5.978;2024-01-30T00:12:38;38.07;36.78;40.39;;
67322;Laerm;57666;51.436;5.978;2024-01-30T00:12:48;37.86;36.73;39.48;;
67322;Laerm;57666;51.436;5.978;2024-01-30T00:12:58;37.94;37.01;43.34;;
67322;Laerm;57666;51.436;5.978;2024-01-30T00:13:08;37.81;36.78;38.96;;
67322;Laerm;57666;51.436;5.978;2024-01-30T00:13:19;37.84;36.72;38.97;;
67322;Laerm;57666;51.436;5.978;2024-01-30T00:13:30;37.85;36.62;38.85;;
67322;Laerm;57666;51.436;5.978;2024-01-30T00:13:40;37.99;36.69;39.21;;
67322;Laerm;57666;51.436;5.978;2024-01-30T00:13:50;39.85;37.49;43.63;;
67322;Laerm;57666;51.436;5.978;2024-01-30T00:14:00;38.10;36.82;39.42;;
67322;Laerm;57666;51.436;5.978;2024-01-30T00:14:11;46.63;37.26;54.41;;
67322;Laerm;57666;51.436;5.978;2024-01-30T00:14:21;53.32;50.68;56.36;;
67322;Laerm;57666;51.436;5.978;2024-01-30T00:14:32;51.46;48.63;53.91;;
67322;Laerm;57666;51.436;5.978;2024-01-30T00:14:42;43.49;37.55;50.89;;
67322;Laerm;57666;51.436;5.978;2024-01-30T00:14:53;38.12;36.95;39.26;;
67322;Laerm;57666;51.436;5.978;2024-01-30T00:15:04;37.87;36.73;38.92;;
67322;Laerm;57666;51.436;5.978;2024-01-30T00:15:15;37.85;36.61;38.73;;
67322;Laerm;57666;51.436;5.978;2024-01-30T00:15:25;38.05;37.10;39.23;;
67322;Laerm;57666;51.436;5.978;2024-01-30T00:15:35;38.16;37.01;39.34;;
67322;Laerm;57666;51.436;5.978;2024-01-30T00:15:46;37.96;36.96;39.10;;
67322;Laerm;57666;51.436;5.978;2024-01-30T00:15:56;37.85;36.84;39.14;;
67322;Laerm;57666;51.436;5.978;2024-01-30T00:16:07;37.80;36.63;39.49;;
67322;Laerm;57666;51.436;5.978;2024-01-30T00:16:21;37.80;36.71;38.97;;
67322;Laerm;57666;51.436;5.978;2024-01-30T00:16:31;37.78;36.69;39.50;;
67322;Laerm;57666;51.436;5.978;2024-01-30T00:16:45;38.00;36.90;39.02;;
67322;Laerm;57666;51.436;5.978;2024-01-30T00:16:55;38.11;36.80;39.10;;
67322;Laerm;57666;51.436;5.978;2024-01-30T00:17:05;37.91;36.97;39.07;;
67322;Laerm;57666;51.436;5.978;2024-01-30T00:17:16;37.82;36.61;38.75;;
67322;Laerm;57666;51.436;5.978;2024-01-30T00:17:26;37.86;36.76;39.07;;
67322;Laerm;57666;51.436;5.978;2024-01-30T00:17:36;37.99;36.99;39.06;;
67322;Laerm;57666;51.436;5.978;2024-01-30T00:17:47;37.82;36.71;39.10;;
67322;Laerm;57666;51.436;5.978;2024-01-30T00:17:57;38.17;37.00;39.37;;
67322;Laerm;57666;51.436;5.978;2024-01-30T00:18:08;38.11;37.08;39.72;;
67322;Laerm;57666;51.436;5.978;2024-01-30T00:18:18;38.22;36.94;39.55;;
67322;Laerm;57666;51.436;5.978;2024-01-30T00:18:29;38.16;36.97;39.27;;
67322;Laerm;57666;51.436;5.978;2024-01-30T00:18:39;38.19;36.66;39.76;;
67322;Laerm;57666;51.436;5.978;2024-01-30T00:18:50;38.26;36.99;39.57;;
67322;Laerm;57666;51.436;5.978;2024-01-30T00:19:01;38.23;37.10;39.47;;
67322;Laerm;57666;51.436;5.978;2024-01-30T00:19:12;38.26;36.91;39.49;;
67322;Laerm;57666;51.436;5.978;2024-01-30T00:19:22;38.22;36.72;39.28;;
67322;Laerm;57666;51.436;5.978;2024-01-30T00:19:33;38.58;36.66;45.49;;
67322;Laerm;57666;51.436;5.978;2024-01-30T00:19:43;38.31;37.23;39.93;;
67322;Laerm;57666;51.436;5.978;2024-01-30T00:19:53;38.36;36.91;39.79;;
67322;Laerm;57666;51.436;5.978;2024-01-30T00:20:04;38.22;36.98;39.80;;
67322;Laerm;57666;51.436;5.978;2024-01-30T00:20:15;38.24;37.06;40.33;;
67322;Laerm;57666;51.436;5.978;2024-01-30T00:20:25;38.37;36.87;39.79;;
67322;Laerm;57666;51.436;5.978;2024-01-30T00:20:36;38.37;36.91;39.78;;
67322;Laerm;57666;51.436;5.978;2024-01-30T00:20:46;38.22;36.92;39.42;;
67322;Laerm;57666;51.436;5.978;2024-01-30T00:20:56;38.09;36.88;42.83;;
67322;Laerm;57666;51.436;5.978;2024-01-30T00:21:07;38.17;36.81;41.98;;
67322;Laerm;57666;51.436;5.978;2024-01-30T00:21:17;38.35;37.03;40.07;;
67322;Laerm;57666;51.436;5.978;2024-01-30T00:21:28;38.15;36.74;39.80;;
67322;Laerm;57666;51.436;5.978;2024-01-30T00:21:38;38.39;37.10;41.13;;
67322;Laerm;57666;51.436;5.978;2024-01-30T00:21:48;38.14;37.00;39.39;;
67322;Laerm;57666;51.436;5.978;2024-01-30T00:21:58;39.86;37.06;46.01;;
67322;Laerm;57666;51.436;5.978;2024-01-30T00:22:09;53.95;44.97;58.11;;
67322;Laerm;57666;51.436;5.978;2024-01-30T00:22:19;53.93;51.56;56.66;;
67322;Laerm;57666;51.436;5.978;2024-01-30T00:22:29;54.27;45.01;57.30;;
67322;Laerm;57666;51.436;5.978;2024-01-30T00:22:40;41.95;37.65;48.04;;
67322;Laerm;57666;51.436;5.978;2024-01-30T00:22:50;38.13;36.72;39.14;;
67322;Laerm;57666;51.436;5.978;2024-01-30T00:23:01;38.09;36.71;39.25;;
67322;Laerm;57666;51.436;5.978;2024-01-30T00:23:11;37.89;36.75;38.92;;
67322;Laerm;57666;51.436;5.978;2024-01-30T00:23:22;37.89;36.88;38.92;;
67322;Laerm;57666;51.436;5.978;2024-01-30T00:23:32;37.86;36.93;39.10;;
67322;Laerm;57666;51.436;5.978;2024-01-30T00:23:42;37.95;36.77;39.10;;
67322;Laerm;57666;51.436;5.978;2024-01-30T00:23:52;38.17;37.16;39.62;;
67322;Laerm;57666;51.436;5.978;2024-01-30T00:24:03;38.19;36.95;39.65;;
67322;Laerm;57666;51.436;5.978;2024-01-30T00:24:13;37.91;36.76;39.02;;
67322;Laerm;57666;51.436;5.978;2024-01-30T00:24:23;37.96;36.68;39.04;;
67322;Laerm;57666;51.436;5.978;2024-01-30T00:24:34;38.02;37.11;39.15;;
67322;Laerm;57666;51.436;5.978;2024-01-30T00:24:44;37.97;36.67;39.29;;
67322;Laerm;57666;51.436;5.978;2024-01-30T00:24:54;37.94;36.53;39.19;;
67322;Laerm;57666;51.436;5.978;2024-01-30T00:25:05;37.96;36.93;39.13;;
67322;Laerm;57666;51.436;5.978;2024-01-30T00:25:15;38.10;37.08;39.52;;
67322;Laerm;57666;51.436;5.978;2024-01-30T00:25:25;38.06;36.57;39.20;;
67322;Laerm;57666;51.436;5.978;2024-01-30T00:25:36;37.99;36.75;39.16;;
67322;Laerm;57666;51.436;5.978;2024-01-30T00:25:46;38.10;36.83;39.05;;
67322;Laerm;57666;51.436;5.978;2024-01-30T00:25:56;38.06;36.97;39.09;;
67322;Laerm;57666;51.436;5.978;2024-01-30T00:26:06;38.12;36.98;39.38;;
67322;Laerm;57666;51.436;5.978;2024-01-30T00:26:17;38.00;37.09;39.39;;
67322;Laerm;57666;51.436;5.978;2024-01-30T00:26:27;38.12;37.13;39.67;;
67322;Laerm;57666;51.436;5.978;2024-01-30T00:26:38;38.17;36.59;39.84;;
67322;Laerm;57666;51.436;5.978;2024-01-30T00:26:48;38.14;36.92;39.28;;
67322;Laerm;57666;51.436;5.978;2024-01-30T00:26:58;38.17;36.93;39.33;;
67322;Laerm;57666;51.436;5.978;2024-01-30T00:27:08;37.97;36.59;39.06;;
67322;Laerm;57666;51.436;5.978;2024-01-30T00:27:19;38.03;37.06;39.24;;
67322;Laerm;57666;51.436;5.978;2024-01-30T00:27:29;37.95;36.97;39.04;;
67322;Laerm;57666;51.436;5.978;2024-01-30T00:27:39;37.90;36.91;39.08;;
67322;Laerm;57666;51.436;5.978;2024-01-30T00:27:50;37.76;36.63;38.79;;
67322;Laerm;57666;51.436;5.978;2024-01-30T00:28:00;37.93;36.34;39.28;;
67322;Laerm;57666;51.436;5.978;2024-01-30T00:28:11;38.11;37.06;39.05;;
67322;Laerm;57666;51.436;5.978;2024-01-30T00:28:21;37.89;36.69;39.28;;
67322;Laerm;57666;51.436;5.978;2024-01-30T00:28:32;38.05;36.87;39.23;;
67322;Laerm;57666;51.436;5.978;2024-01-30T00:28:42;38.13;37.09;39.23;;
67322;Laerm;57666;51.436;5.978;2024-01-30T00:28:52;37.90;36.85;39.14;;
67322;Laerm;57666;51.436;5.978;2024-01-30T00:29:02;37.91;36.88;39.38;;
67322;Laerm;57666;51.436;5.978;2024-01-30T00:29:13;37.96;36.37;38.97;;
67322;Laerm;57666;51.436;5.978;2024-01-30T00:29:29;37.98;36.96;39.31;;
67322;Laerm;57666;51.436;5.978;2024-01-30T00:29:41;38.32;37.12;39.39;;
67322;Laerm;57666;51.436;5.978;2024-01-30T00:29:51;38.10;36.94;40.48;;
67322;Laerm;57666;51.436;5.978;2024-01-30T00:30:01;38.02;36.74;39.17;;
67322;Laerm;57666;51.436;5.978;2024-01-30T00:30:12;38.00;36.83;39.30;;
67322;Laerm;57666;51.436;5.978;2024-01-30T00:30:22;37.90;36.59;39.09;;
67322;Laerm;57666;51.436;5.978;2024-01-30T00:30:33;37.92;36.86;39.48;;
67322;Laerm;57666;51.436;5.978;2024-01-30T00:30:43;37.92;36.84;39.08;;
67322;Laerm;57666;51.436;5.978;2024-01-30T00:30:54;37.92;36.39;39.16;;
67322;Laerm;57666;51.436;5.978;2024-01-30T00:31:04;38.20;36.94;39.60;;
67322;Laerm;57666;51.436;5.978;2024-01-30T00:31:14;38.08;36.88;39.11;;
67322;Laerm;57666;51.436;5.978;2024-01-30T00:31:25;38.18;36.98;39.43;;
67322;Laerm;57666;51.436;5.978;2024-01-30T00:31:35;38.18;36.80;39.77;;
67322;Laerm;57666;51.436;5.978;2024-01-30T00:31:45;38.14;37.00;39.51;;
67322;Laerm;57666;51.436;5.978;2024-01-30T00:31:56;38.06;36.73;39.56;;
67322;Laerm;57666;51.436;5.978;2024-01-30T00:32:06;38.94;37.26;43.42;;
67322;Laerm;57666;51.436;5.978;2024-01-30T00:32:17;43.60;38.30;48.24;;
67322;Laerm;57666;51.436;5.978;2024-01-30T00:32:29;38.16;36.80;39.60;;
67322;Laerm;57666;51.436;5.978;2024-01-30T00:32:39;38.07;36.85;39.26;;
67322;Laerm;57666;51.436;5.978;2024-01-30T00:32:49;37.76;36.58;38.85;;
67322;Laerm;57666;51.436;5.978;2024-01-30T00:33:00;37.96;36.68;39.42;;
67322;Laerm;57666;51.436;5.978;2024-01-30T00:33:10;37.83;36.90;39.05;;
67322;Laerm;57666;51.436;5.978;2024-01-30T00:33:20;37.87;36.60;38.95;;
67322;Laerm;57666;51.436;5.978;2024-01-30T00:33:31;37.92;36.89;38.86;;
67322;Laerm;57666;51.436;5.978;2024-01-30T00:33:42;37.87;36.86;39.00;;
67322;Laerm;57666;51.436;5.978;2024-01-30T00:33:52;37.95;36.73;39.16;;
67322;Laerm;57666;51.436;5.978;2024-01-30T00:34:03;37.94;36.69;39.11;;
67322;Laerm;57666;51.436;5.978;2024-01-30T00:34:13;37.81;36.70;38.69;;
67322;Laerm;57666;51.436;5.978;2024-01-30T00:34:23;37.93;36.78;38.94;;
67322;Laerm;57666;51.436;5.978;2024-01-30T00:34:34;37.87;36.94;38.96;;
67322;Laerm;57666;51.436;5.978;2024-01-30T00:34:44;37.85;36.83;38.96;;
67322;Laerm;57666;51.436;5.978;2024-01-30T00:34:54;37.88;36.58;39.03;;
67322;Laerm;57666;51.436;5.978;2024-01-30T00:35:05;37.87;37.03;39.40;;
67322;Laerm;57666;51.436;5.978;2024-01-30T00:35:15;37.90;36.72;38.97;;
67322;Laerm;57666;51.436;5.978;2024-01-30T00:35:26;37.92;36.72;39.55;;
67322;Laerm;57666;51.436;5.978;2024-01-30T00:35:37;38.09;36.69;39.30;;
67322;Laerm;57666;51.436;5.978;2024-01-30T00:35:47;48.04;37.62;59.50;;
67322;Laerm;57666;51.436;5.978;2024-01-30T00:35:57;49.58;46.09;58.39;;
67322;Laerm;57666;51.436;5.978;2024-01-30T00:36:08;49.46;42.22;53.84;;
67322;Laerm;57666;51.436;5.978;2024-01-30T00:36:19;39.15;37.34;42.33;;
67322;Laerm;57666;51.436;5.978;2024-01-30T00:36:29;38.28;36.64;39.76;;
67322;Laerm;57666;51.436;5.978;2024-01-30T00:36:40;38.13;37.03;39.45;;
67322;Laerm;57666;51.436;5.978;2024-01-30T00:36:50;38.12;36.41;40.03;;
67322;Laerm;57666;51.436;5.978;2024-01-30T00:37:00;38.11;36.80;39.38;;
67322;Laerm;57666;51.436;5.978;2024-01-30T00:37:11;38.13;36.58;39.22;;
67322;Laerm;57666;51.436;5.978;2024-01-30T00:37:21;38.12;36.82;39.41;;
67322;Laerm;57666;51.436;5.978;2024-01-30T00:37:32;38.04;36.83;39.33;;
67322;Laerm;57666;51.436;5.978;2024-01-30T00:37:42;38.00;36.65;39.57;;
67322;Laerm;57666;51.436;5.978;2024-01-30T00:37:52;38.21;36.71;39.60;;
67322;Laerm;57666;51.436;5.978;2024-01-30T00:38:03;38.04;36.95;39.67;;
67322;Laerm;57666;51.436;5.978;2024-01-30T00:38:13;37.93;36.83;39.11;;
67322;Laerm;57666;51.436;5.978;2024-01-30T00:38:23;37.99;36.72;39.59;;
67322;Laerm;57666;51.436;5.978;2024-01-30T00:38:34;38.10;36.86;39.80;;
67322;Laerm;57666;51.436;5.978;2024-01-30T00:38:44;38.16;36.68;39.55;;
67322;Laerm;57666;51.436;5.978;2024-01-30T00:38:54;38.07;36.43;39.40;;
67322;Laerm;57666;51.436;5.978;2024-01-30T00:39:05;38.05;36.85;39.35;;
67322;Laerm;57666;51.436;5.978;2024-01-30T00:39:17;37.98;36.68;39.13;;
67322;Laerm;57666;51.436;5.978;2024-01-30T00:39:29;37.99;36.61;39.81;;
67322;Laerm;57666;51.436;5.978;2024-01-30T00:39:39;38.10;36.80;39.90;;
67322;Laerm;57666;51.436;5.978;2024-01-30T00:39:50;38.09;36.83;39.14;;
67322;Laerm;57666;51.436;5.978;2024-01-30T00:40:00;38.10;36.97;39.55;;
67322;Laerm;57666;51.436;5.978;2024-01-30T00:40:10;37.93;36.73;39.29;;
67322;Laerm;57666;51.436;5.978;2024-01-30T00:40:25;38.07;36.69;39.16;;
67322;Laerm;57666;51.436;5.978;2024-01-30T00:40:36;38.33;36.81;49.66;;
67322;Laerm;57666;51.436;5.978;2024-01-30T00:40:46;38.11;36.81;39.96;;
67322;Laerm;57666;51.436;5.978;2024-01-30T00:40:56;38.10;36.59;39.46;;
67322;Laerm;57666;51.436;5.978;2024-01-30T00:41:07;38.21;36.81;39.64;;
67322;Laerm;57666;51.436;5.978;2024-01-30T00:41:18;38.13;37.06;39.90;;
67322;Laerm;57666;51.436;5.978;2024-01-30T00:41:29;38.03;36.85;39.49;;
67322;Laerm;57666;51.436;5.978;2024-01-30T00:41:39;38.04;36.67;39.25;;
67322;Laerm;57666;51.436;5.978;2024-01-30T00:41:50;38.03;36.82;39.73;;
67322;Laerm;57666;51.436;5.978;2024-01-30T00:42:00;38.08;36.65;39.59;;
67322;Laerm;57666;51.436;5.978;2024-01-30T00:42:10;38.13;37.01;39.63;;
67322;Laerm;57666;51.436;5.978;2024-01-30T00:42:20;38.03;36.41;39.15;;
67322;Laerm;57666;51.436;5.978;2024-01-30T00:42:31;38.00;36.92;39.08;;
67322;Laerm;57666;51.436;5.978;2024-01-30T00:42:42;38.16;36.98;39.65;;
67322;Laerm;57666;51.436;5.978;2024-01-30T00:42:52;38.22;36.86;39.69;;
67322;Laerm;57666;51.436;5.978;2024-01-30T00:43:03;38.95;36.94;41.24;;
67322;Laerm;57666;51.436;5.978;2024-01-30T00:43:13;44.38;37.89;50.28;;
67322;Laerm;57666;51.436;5.978;2024-01-30T00:43:23;38.21;36.59;39.50;;
67322;Laerm;57666;51.436;5.978;2024-01-30T00:43:35;38.08;36.74;39.32;;
67322;Laerm;57666;51.436;5.978;2024-01-30T00:43:45;38.03;36.76;39.07;;
67322;Laerm;57666;51.436;5.978;2024-01-30T00:43:55;38.02;36.96;39.13;;
67322;Laerm;57666;51.436;5.978;2024-01-30T00:44:06;38.01;36.62;39.31;;
67322;Laerm;57666;51.436;5.978;2024-01-30T00:44:16;38.13;37.09;39.71;;
67322;Laerm;57666;51.436;5.978;2024-01-30T00:44:27;38.08;36.77;39.63;;
67322;Laerm;57666;51.436;5.978;2024-01-30T00:44:37;37.96;36.64;40.67;;
67322;Laerm;57666;51.436;5.978;2024-01-30T00:44:48;38.03;36.63;39.15;;
67322;Laerm;57666;51.436;5.978;2024-01-30T00:44:59;37.95;36.74;39.23;;
67322;Laerm;57666;51.436;5.978;2024-01-30T00:45:15;37.96;36.63;39.39;;
67322;Laerm;57666;51.436;5.978;2024-01-30T00:45:26;38.00;36.84;39.07;;
67322;Laerm;57666;51.436;5.978;2024-01-30T00:45:36;38.04;36.54;39.27;;
67322;Laerm;57666;51.436;5.978;2024-01-30T00:45:47;38.12;37.06;39.12;;
67322;Laerm;57666;51.436;5.978;2024-01-30T00:45:57;38.09;36.82;39.88;;
67322;Laerm;57666;51.436;5.978;2024-01-30T00:46:08;38.19;36.89;39.51;;
67322;Laerm;57666;51.436;5.978;2024-01-30T00:46:18;38.16;36.67;39.55;;
67322;Laerm;57666;51.436;5.978;2024-01-30T00:46:28;38.10;37.14;39.29;;
67322;Laerm;57666;51.436;5.978;2024-01-30T00:46:38;38.11;36.98;39.69;;
67322;Laerm;57666;51.436;5.978;2024-01-30T00:46:49;38.21;37.21;39.41;;
67322;Laerm;57666;51.436;5.978;2024-01-30T00:46:59;38.21;37.08;39.24;;
67322;Laerm;57666;51.436;5.978;2024-01-30T00:47:09;38.22;37.14;39.87;;
67322;Laerm;57666;51.436;5.978;2024-01-30T00:47:20;38.24;37.07;39.60;;
67322;Laerm;57666;51.436;5.978;2024-01-30T00:47:30;38.02;36.78;39.38;;
67322;Laerm;57666;51.436;5.978;2024-01-30T00:47:43;37.96;36.44;39.47;;
67322;Laerm;57666;51.436;5.978;2024-01-30T00:47:53;38.02;36.27;39.25;;
67322;Laerm;57666;51.436;5.978;2024-01-30T00:48:04;38.13;36.93;39.22;;
67322;Laerm;57666;51.436;5.978;2024-01-30T00:48:14;38.08;36.93;39.63;;
67322;Laerm;57666;51.436;5.978;2024-01-30T00:48:24;38.12;36.85;39.45;;
67322;Laerm;57666;51.436;5.978;2024-01-30T00:48:35;38.11;36.92;39.65;;
67322;Laerm;57666;51.436;5.978;2024-01-30T00:48:45;38.54;37.20;40.12;;
67322;Laerm;57666;51.436;5.978;2024-01-30T00:48:55;47.72;38.26;53.74;;
67322;Laerm;57666;51.436;5.978;2024-01-30T00:49:05;51.82;47.93;57.06;;
67322;Laerm;57666;51.436;5.978;2024-01-30T00:49:16;50.10;39.89;56.43;;
67322;Laerm;57666;51.436;5.978;2024-01-30T00:49:26;39.21;37.52;41.18;;
67322;Laerm;57666;51.436;5.978;2024-01-30T00:49:36;38.27;36.96;39.51;;
67322;Laerm;57666;51.436;5.978;2024-01-30T00:49:47;38.27;37.11;39.83;;
67322;Laerm;57666;51.436;5.978;2024-01-30T00:49:57;37.94;36.87;39.58;;
67322;Laerm;57666;51.436;5.978;2024-01-30T00:50:07;38.03;36.96;39.69;;
67322;Laerm;57666;51.436;5.978;2024-01-30T00:50:21;38.28;36.93;39.81;;
67322;Laerm;57666;51.436;5.978;2024-01-30T00:50:31;38.44;36.98;40.03;;
67322;Laerm;57666;51.436;5.978;2024-01-30T00:50:42;38.27;37.09;39.97;;
67322;Laerm;57666;51.436;5.978;2024-01-30T00:50:52;38.20;36.83;39.61;;
67322;Laerm;57666;51.436;5.978;2024-01-30T00:51:02;38.27;36.87;39.86;;
67322;Laerm;57666;51.436;5.978;2024-01-30T00:51:13;38.06;36.69;39.17;;
67322;Laerm;57666;51.436;5.978;2024-01-30T00:51:23;38.10;36.78;39.46;;
67322;Laerm;57666;51.436;5.978;2024-01-30T00:51:33;38.30;37.03;39.47;;
67322;Laerm;57666;51.436;5.978;2024-01-30T00:51:44;38.15;36.93;39.41;;
67322;Laerm;57666;51.436;5.978;2024-01-30T00:51:54;37.98;36.55;39.19;;
67322;Laerm;57666;51.436;5.978;2024-01-30T00:52:04;37.86;36.82;39.04;;
67322;Laerm;57666;51.436;5.978;2024-01-30T00:52:15;38.01;36.84;39.61;;
67322;Laerm;57666;51.436;5.978;2024-01-30T00:52:25;38.01;36.79;39.36;;
67322;Laerm;57666;51.436;5.978;2024-01-30T00:52:36;38.16;37.18;39.36;;
67322;Laerm;57666;51.436;5.978;2024-01-30T00:52:46;38.16;37.27;39.40;;
67322;Laerm;57666;51.436;5.978;2024-01-30T00:52:56;43.55;37.50;50.79;;
67322;Laerm;57666;51.436;5.978;2024-01-30T00:53:07;50.49;47.52;55.32;;
67322;Laerm;57666;51.436;5.978;2024-01-30T00:53:17;48.18;46.05;51.33;;
67322;Laerm;57666;51.436;5.978;2024-01-30T00:53:27;42.87;37.43;48.32;;
67322;Laerm;57666;51.436;5.978;2024-01-30T00:53:38;38.53;37.24;39.69;;
67322;Laerm;57666;51.436;5.978;2024-01-30T00:53:48;38.25;36.83;40.04;;
67322;Laerm;57666;51.436;5.978;2024-01-30T00:53:58;38.18;36.72;39.31;;
67322;Laerm;57666;51.436;5.978;2024-01-30T00:54:09;38.11;36.76;39.39;;
67322;Laerm;57666;51.436;5.978;2024-01-30T00:54:19;37.96;36.39;39.24;;
67322;Laerm;57666;51.436;5.978;2024-01-30T00:54:29;38.09;36.83;39.51;;
67322;Laerm;57666;51.436;5.978;2024-01-30T00:54:40;37.90;36.48;39.04;;
67322;Laerm;57666;51.436;5.978;2024-01-30T00:54:50;37.87;36.01;39.10;;
67322;Laerm;57666;51.436;5.978;2024-01-30T00:55:00;37.98;36.90;39.52;;
67322;Laerm;57666;51.436;5.978;2024-01-30T00:55:11;38.09;36.62;39.46;;
67322;Laerm;57666;51.436;5.978;2024-01-30T00:55:21;38.23;36.77;39.52;;
67322;Laerm;57666;51.436;5.978;2024-01-30T00:55:31;38.11;36.82;39.16;;
67322;Laerm;57666;51.436;5.978;2024-01-30T00:55:42;37.93;37.04;39.42;;
67322;Laerm;57666;51.436;5.978;2024-01-30T00:55:52;38.10;36.80;39.35;;
67322;Laerm;57666;51.436;5.978;2024-01-30T00:56:02;38.13;36.55;39.40;;
67322;Laerm;57666;51.436;5.978;2024-01-30T00:56:13;38.01;36.65;39.66;;
67322;Laerm;57666;51.436;5.978;2024-01-30T00:56:23;38.25;36.71;39.66;;
67322;Laerm;57666;51.436;5.978;2024-01-30T00:56:34;38.27;36.80;39.56;;
67322;Laerm;57666;51.436;5.978;2024-01-30T00:56:44;38.33;36.88;39.51;;
67322;Laerm;57666;51.436;5.978;2024-01-30T00:56:55;38.21;36.66;39.53;;
67322;Laerm;57666;51.436;5.978;2024-01-30T00:57:05;38.04;36.92;39.67;;
67322;Laerm;57666;51.436;5.978;2024-01-30T00:57:15;38.29;36.73;39.53;;
67322;Laerm;57666;51.436;5.978;2024-01-30T00:57:26;38.14;36.68;39.64;;
67322;Laerm;57666;51.436;5.978;2024-01-30T00:57:39;38.15;36.90;39.37;;
67322;Laerm;57666;51.436;5.978;2024-01-30T00:57:50;38.24;37.22;39.52;;
67322;Laerm;57666;51.436;5.978;2024-01-30T00:58:00;38.25;36.82;39.54;;
67322;Laerm;57666;51.436;5.978;2024-01-30T00:58:10;38.13;36.95;39.23;;
67322;Laerm;57666;51.436;5.978;2024-01-30T00:58:21;38.03;36.78;39.17;;
67322;Laerm;57666;51.436;5.978;2024-01-30T00:58:34;38.20;37.03;39.47;;
67322;Laerm;57666;51.436;5.978;2024-01-30T00:58:44;38.21;36.77;39.38;;
67322;Laerm;57666;51.436;5.978;2024-01-30T00:58:55;38.05;36.60;39.71;;